createdAt,value
2022-11-05T00:01:52.512Z,1.08
2022-11-05T00:07:31.299Z,2.07
2022-11-05T00:10:07.915Z,2.45
2022-11-05T00:12:52.920Z,2.22
2022-11-05T00:18:04.021Z,1.45
2022-11-05T00:20:30.512Z,1.15
2022-11-05T00:23:23.237Z,2.25
2022-11-05T00:25:57.791Z,1.27
2022-11-05T00:28:26.306Z,2.75
2022-11-05T00:30:53.703Z,4.72
2022-11-05T00:33:20.538Z,2.78
2022-11-05T00:35:46.987Z,1.25
2022-11-05T00:38:13.426Z,2.67
2022-11-05T00:40:40.002Z,4.90
2022-11-05T00:43:24.751Z,1.67
2022-11-05T00:45:51.152Z,2.10
2022-11-05T00:48:35.929Z,2.78
2022-11-05T00:51:02.313Z,5.60
2022-11-05T00:53:28.892Z,2.47
2022-11-05T00:55:55.303Z,1.67
2022-11-05T00:58:22.828Z,2.50
2022-11-05T01:00:54.738Z,2.20
2022-11-05T01:03:24.339Z,1.10
2022-11-05T01:05:53.175Z,3.08
2022-11-05T01:08:21.026Z,3.67
2022-11-05T01:10:50.777Z,1.77
2022-11-05T01:13:19.889Z,1.30
2022-11-05T01:15:47.186Z,2.50
2022-11-05T01:18:13.618Z,5.25
2022-11-05T01:20:40.401Z,5.25
2022-11-05T01:23:13.004Z,1.88
2022-11-05T01:25:40.540Z,3.33
2022-11-05T01:28:08.908Z,3.58
2022-11-05T01:30:36.658Z,2.17
2022-11-05T01:33:03.471Z,2.35
2022-11-05T01:35:29.878Z,3.17
2022-11-05T01:37:56.220Z,2.97
2022-11-05T01:40:24.751Z,2.10
2022-11-05T01:42:51.258Z,4.00
2022-11-05T01:45:20.473Z,5.00
2022-11-05T01:47:49.846Z,3.35
2022-11-05T01:50:35.156Z,1.65
2022-11-05T01:53:25.952Z,2.40
2022-11-05T01:56:00.894Z,7.00
2022-11-05T01:58:34.565Z,4.20
2022-11-05T02:01:01.214Z,3.30
2022-11-05T02:03:28.991Z,4.30
2022-11-05T02:05:57.145Z,5.35
2022-11-05T02:08:45.137Z,4.72
2022-11-05T02:11:14.193Z,2.75
2022-11-05T02:13:40.774Z,3.03
2022-11-05T02:16:25.359Z,2.80
2022-11-05T02:19:00.727Z,5.18
2022-11-05T02:21:42.340Z,7.10
2022-11-05T02:24:44.406Z,2.55
2022-11-05T02:27:21.546Z,2.65
2022-11-05T02:30:21.532Z,5.70
2022-11-05T02:33:21.855Z,2.90
2022-11-05T02:36:20.436Z,1.05
2022-11-05T02:39:08.053Z,2.50
2022-11-05T02:41:34.360Z,0.80
2022-11-05T02:44:29.029Z,0.82
2022-11-05T02:47:07.989Z,0.70
2022-11-05T02:49:51.522Z,2.08
2022-11-05T02:52:35.775Z,1.05
2022-11-05T02:55:17.332Z,1.23
2022-11-05T02:57:46.584Z,2.70
2022-11-05T03:00:37.765Z,2.08
2022-11-05T03:03:07.533Z,1.25
2022-11-05T03:05:50.047Z,1.13
2022-11-05T03:08:48.687Z,2.80
2022-11-05T03:11:18.610Z,1.83
2022-11-05T03:14:18.423Z,1.52
2022-11-05T03:16:58.352Z,2.90
2022-11-05T03:19:36.601Z,1.52
2022-11-05T03:22:21.459Z,2.42
2022-11-05T03:24:54.871Z,1.38
2022-11-05T03:27:27.166Z,3.38
2022-11-05T03:30:02.953Z,1.92
2022-11-05T03:32:33.368Z,1.38
2022-11-05T03:35:10.670Z,1.70
2022-11-05T03:37:41.429Z,1.75
2022-11-05T03:40:10.373Z,1.90
2022-11-05T03:42:40.967Z,2.60
2022-11-05T03:45:18.359Z,2.08
2022-11-05T03:47:47.710Z,2.30
2022-11-05T03:50:27.645Z,3.00
2022-11-05T03:52:59.965Z,3.33
2022-11-05T03:55:36.346Z,3.28
2022-11-05T03:58:05.063Z,3.40
2022-11-05T04:00:31.893Z,4.25
2022-11-05T04:02:58.299Z,4.55
2022-11-05T04:05:24.867Z,3.92
2022-11-05T04:08:14.134Z,4.22
2022-11-05T04:10:59.704Z,4.05
2022-11-05T04:13:26.730Z,2.92
2022-11-05T04:16:13.541Z,3.08
2022-11-05T04:18:40.521Z,4.47
2022-11-05T04:21:28.288Z,4.22
2022-11-05T04:24:10.145Z,3.17
2022-11-05T04:26:42.058Z,4.57
2022-11-05T04:29:27.084Z,2.97
2022-11-05T04:34:21.942Z,3.10
2022-11-05T04:36:49.859Z,4.03
2022-11-05T04:39:20.522Z,4.25
2022-11-05T04:41:50.530Z,2.70
2022-11-05T04:44:17.228Z,2.47
2022-11-05T04:46:43.829Z,2.70
2022-11-05T04:49:10.191Z,3.90
2022-11-05T04:51:36.596Z,2.15
2022-11-05T04:54:03.025Z,3.92
2022-11-05T04:56:29.395Z,3.45
2022-11-05T04:58:55.764Z,4.88
2022-11-05T05:01:23.714Z,2.70
2022-11-05T05:03:51.616Z,3.95
2022-11-05T05:06:18.898Z,4.95
2022-11-05T05:08:49.392Z,4.40
2022-11-05T05:11:18.644Z,4.57
2022-11-05T05:13:45.284Z,5.63
2022-11-05T05:16:21.130Z,3.40
2022-11-05T05:18:48.746Z,6.28
2022-11-05T05:21:35.703Z,5.50
2022-11-05T05:24:03.312Z,3.78
2022-11-05T05:26:29.797Z,8.00
2022-11-05T05:28:56.241Z,8.25
2022-11-05T05:31:23.135Z,6.78
2022-11-05T05:33:49.608Z,5.60
2022-11-05T05:36:16.035Z,4.65
2022-11-05T05:38:42.505Z,2.75
2022-11-05T05:41:08.917Z,2.65
2022-11-05T05:43:35.295Z,3.50
2022-11-05T05:46:03.066Z,4.30
2022-11-05T05:48:29.548Z,3.85
2022-11-05T05:51:00.983Z,3.90
2022-11-05T05:53:27.741Z,4.85
2022-11-05T05:55:55.299Z,3.13
2022-11-05T05:58:22.313Z,3.13
2022-11-05T06:00:48.703Z,4.63
2022-11-05T06:03:15.365Z,3.97
2022-11-05T06:05:41.890Z,4.30
2022-11-05T06:08:08.283Z,6.90
2022-11-05T06:10:34.989Z,3.75
2022-11-05T06:13:02.617Z,3.00
2022-11-05T06:15:34.607Z,3.90
2022-11-05T06:18:08.760Z,2.83
2022-11-05T06:20:35.117Z,3.80
2022-11-05T06:23:01.976Z,4.00
2022-11-05T06:25:28.414Z,4.70
2022-11-05T06:27:54.784Z,2.15
2022-11-05T06:30:21.801Z,2.50
2022-11-05T06:32:48.161Z,3.22
2022-11-05T06:35:14.549Z,3.00
2022-11-05T06:37:41.033Z,3.40
2022-11-05T06:40:08.347Z,4.28
2022-11-05T06:42:34.744Z,4.30
2022-11-05T06:45:01.398Z,3.85
2022-11-05T06:47:27.909Z,5.57
2022-11-05T06:49:54.285Z,3.00
2022-11-05T06:52:20.944Z,2.72
2022-11-05T06:54:47.335Z,5.43
2022-11-05T06:57:13.689Z,3.05
2022-11-05T06:59:40.551Z,5.45
2022-11-05T07:02:09.968Z,10.73
2022-11-05T07:04:36.685Z,6.95
2022-11-05T07:07:03.065Z,4.57
2022-11-05T07:09:29.453Z,9.68
2022-11-05T07:11:55.939Z,7.35
2022-11-05T07:14:22.455Z,3.85
2022-11-05T07:16:48.867Z,4.65
2022-11-05T07:19:15.219Z,2.78
2022-11-05T07:21:41.564Z,3.33
2022-11-05T07:24:08.274Z,3.80
2022-11-05T07:26:34.861Z,6.57
2022-11-05T07:29:01.475Z,13.68
2022-11-05T07:31:28.018Z,2.75
2022-11-05T07:33:54.372Z,6.60
2022-11-05T07:36:20.684Z,4.75
2022-11-05T07:38:47.056Z,2.65
2022-11-05T07:41:13.445Z,2.88
2022-11-05T07:43:39.804Z,5.20
2022-11-05T07:46:11.169Z,1.83
2022-11-05T07:48:39.931Z,3.28
2022-11-05T07:51:06.331Z,4.82
2022-11-05T07:53:32.665Z,4.80
2022-11-05T07:55:59.079Z,3.28
2022-11-05T07:58:25.473Z,3.42
2022-11-05T08:00:52.012Z,3.75
2022-11-05T08:03:19.532Z,4.53
2022-11-05T08:05:47.595Z,2.22
2022-11-05T08:08:16.510Z,2.30
2022-11-05T08:10:43.118Z,3.40
2022-11-05T08:13:10.267Z,5.95
2022-11-05T08:15:37.559Z,3.40
2022-11-05T08:18:06.753Z,7.35
2022-11-05T08:20:34.499Z,3.10
2022-11-05T08:23:01.296Z,2.92
2022-11-05T08:25:28.304Z,3.63
2022-11-05T08:28:04.151Z,2.97
2022-11-05T08:30:31.769Z,3.17
2022-11-05T08:33:06.409Z,2.92
2022-11-05T08:35:34.715Z,2.05
2022-11-05T08:38:03.146Z,5.15
2022-11-05T08:40:31.362Z,4.05
2022-11-05T08:42:59.074Z,3.00
2022-11-05T08:45:26.788Z,2.95
2022-11-05T08:48:14.976Z,4.68
2022-11-05T08:50:42.166Z,3.80
2022-11-05T08:53:09.726Z,2.67
2022-11-05T08:55:36.864Z,1.38
2022-11-05T08:58:05.497Z,3.20
2022-11-05T09:00:35.427Z,2.30
2022-11-05T09:03:04.233Z,2.25
2022-11-05T09:05:32.160Z,5.20
2022-11-05T09:08:01.331Z,3.33
2022-11-05T09:10:28.491Z,5.68
2022-11-05T09:12:54.956Z,4.45
2022-11-05T09:15:21.439Z,3.15
2022-11-05T09:17:47.838Z,2.50
2022-11-05T09:20:14.280Z,1.88
2022-11-05T09:22:43.480Z,2.92
2022-11-05T09:25:10.122Z,3.35
2022-11-05T09:27:36.497Z,2.42
2022-11-05T09:30:03.019Z,1.88
2022-11-05T09:32:32.204Z,2.30
2022-11-05T09:35:00.319Z,6.40
2022-11-05T09:37:27.952Z,1.27
2022-11-05T09:39:54.627Z,3.33
2022-11-05T09:42:24.716Z,3.75
2022-11-05T09:45:04.289Z,2.63
2022-11-05T09:47:39.164Z,1.92
2022-11-05T09:50:15.340Z,4.05
2022-11-05T09:52:41.751Z,3.33
2022-11-05T09:55:21.959Z,1.60
2022-11-05T09:57:54.578Z,2.22
2022-11-05T10:00:21.108Z,2.72
2022-11-05T10:02:53.090Z,1.23
2022-11-05T10:05:20.827Z,2.60
2022-11-05T10:07:56.239Z,1.42
2022-11-05T10:10:40.864Z,3.58
2022-11-05T10:13:48.716Z,1.88
2022-11-05T10:16:26.137Z,2.45
2022-11-05T10:19:26.625Z,3.40
2022-11-05T10:22:16.341Z,3.28
2022-11-05T10:24:46.360Z,1.45
2022-11-05T10:27:18.346Z,3.42
2022-11-05T10:29:45.936Z,3.72
2022-11-05T10:32:21.777Z,1.83
2022-11-05T10:34:49.692Z,0.75
2022-11-05T10:37:23.501Z,8.27
2022-11-05T10:39:50.028Z,2.40
2022-11-05T10:42:44.220Z,2.13
2022-11-05T10:45:16.445Z,2.30
2022-11-05T10:48:01.944Z,2.58
2022-11-05T10:50:29.776Z,1.67
2022-11-05T10:53:16.221Z,3.92
2022-11-05T10:55:46.792Z,2.72
2022-11-05T10:58:13.140Z,2.22
2022-11-05T11:00:39.733Z,1.88
2022-11-05T11:03:44.633Z,2.70
2022-11-05T11:06:28.478Z,2.78
2022-11-05T11:08:57.828Z,2.58
2022-11-05T11:11:29.297Z,1.50
2022-11-05T11:14:14.150Z,3.45
2022-11-05T11:19:20.594Z,4.82
2022-11-05T11:22:07.677Z,2.78
2022-11-05T11:24:39.061Z,3.13
2022-11-05T11:27:10.799Z,3.10
2022-11-05T11:29:43.977Z,1.98
2022-11-05T11:32:18.692Z,1.80
2022-11-05T11:34:49.035Z,4.28
2022-11-05T11:37:37.259Z,6.60
2022-11-05T11:40:14.720Z,3.25
2022-11-05T11:42:46.463Z,2.67
2022-11-05T11:45:22.996Z,4.28
2022-11-05T11:47:50.876Z,3.53
2022-11-05T11:50:36.256Z,3.78
2022-11-05T11:53:21.099Z,3.63
2022-11-05T11:58:42.238Z,2.50
2022-11-05T12:01:39.768Z,5.40
2022-11-05T12:04:06.139Z,4.15
2022-11-05T12:06:44.328Z,6.50
2022-11-05T12:09:23.472Z,3.20
2022-11-05T12:12:08.759Z,2.30
2022-11-05T12:14:46.630Z,1.20
2022-11-05T12:17:38.261Z,1.40
2022-11-05T12:20:27.243Z,3.85
2022-11-05T12:23:13.249Z,4.05
2022-11-05T12:25:56.989Z,4.30
2022-11-05T12:29:17.953Z,2.20
2022-11-05T12:32:17.234Z,7.95
2022-11-05T12:35:06.526Z,2.58
2022-11-05T12:37:54.303Z,3.40
2022-11-05T12:40:38.927Z,3.97
2022-11-05T12:43:38.231Z,3.05
2022-11-05T12:46:36.952Z,1.98
2022-11-05T12:49:19.028Z,3.95
2022-11-05T12:52:00.915Z,2.47
2022-11-05T12:54:54.655Z,3.33
2022-11-05T12:57:23.026Z,2.03
2022-11-05T13:00:00.574Z,4.10
2022-11-05T13:02:33.024Z,2.63
2022-11-05T13:05:21.013Z,3.67
2022-11-05T13:07:59.682Z,2.45
2022-11-05T13:10:37.026Z,2.63
2022-11-05T13:13:12.202Z,2.38
2022-11-05T13:15:50.675Z,1.58
2022-11-05T13:18:31.113Z,1.20
2022-11-05T13:21:00.304Z,2.88
2022-11-05T13:23:42.860Z,3.58
2022-11-05T13:26:20.109Z,1.30
2022-11-05T13:29:08.136Z,0.60
2022-11-05T13:31:39.758Z,2.35
2022-11-05T13:34:13.309Z,3.70
2022-11-05T13:37:23.781Z,2.03
2022-11-05T13:39:56.008Z,1.45
2022-11-05T13:42:53.347Z,1.00
2022-11-05T13:45:36.187Z,1.58
2022-11-05T13:48:21.080Z,3.92
2022-11-05T13:50:50.425Z,2.05
2022-11-05T13:53:35.777Z,1.65
2022-11-05T13:56:14.868Z,1.63
2022-11-05T13:59:03.008Z,1.75
2022-11-05T14:01:50.264Z,2.03
2022-11-05T14:04:35.740Z,1.75
2022-11-05T14:07:31.513Z,2.08
2022-11-05T14:10:20.449Z,1.35
2022-11-05T14:12:51.258Z,1.55
2022-11-05T14:15:28.058Z,1.33
2022-11-05T14:18:03.285Z,1.88
2022-11-05T14:20:32.671Z,3.50
2022-11-05T14:23:17.568Z,4.63
2022-11-05T14:25:43.872Z,5.30
2022-11-05T14:28:35.164Z,1.33
2022-11-05T14:31:47.451Z,1.83
2022-11-05T14:34:13.052Z,3.28
2022-11-05T14:36:40.284Z,2.25
2022-11-05T14:39:20.474Z,1.92
2022-11-05T14:41:57.616Z,3.05
2022-11-05T14:44:25.740Z,4.18
2022-11-05T14:46:56.092Z,3.00
2022-11-05T14:49:30.988Z,1.98
2022-11-05T14:52:07.268Z,1.25
2022-11-05T14:54:47.590Z,2.22
2022-11-05T14:57:35.223Z,3.70
2022-11-05T15:00:02.364Z,1.90
2022-11-05T15:02:35.721Z,2.42
2022-11-05T15:05:38.442Z,1.30
2022-11-05T15:08:24.625Z,3.58
2022-11-05T15:10:53.842Z,3.78
2022-11-05T15:13:46.717Z,5.20
2022-11-05T15:16:20.522Z,4.90
2022-11-05T15:18:47.668Z,8.45
2022-11-05T15:21:16.544Z,7.65
2022-11-05T15:23:45.443Z,5.03
2022-11-05T15:26:17.488Z,4.32
2022-11-05T15:28:47.895Z,5.05
2022-11-05T15:31:14.235Z,2.83
2022-11-05T15:33:47.568Z,8.25
2022-11-05T15:36:19.844Z,5.25
2022-11-05T15:39:08.083Z,5.22
2022-11-05T15:41:34.448Z,8.70
2022-11-05T15:44:02.624Z,7.95
2022-11-05T15:46:29.781Z,5.45
2022-11-05T15:49:06.962Z,5.60
2022-11-05T15:51:33.756Z,5.60
2022-11-05T15:54:24.411Z,7.40
2022-11-05T15:56:53.653Z,7.00
2022-11-05T15:59:22.899Z,8.95
2022-11-05T16:02:18.303Z,7.50
2022-11-05T16:04:48.326Z,6.18
2022-11-05T16:07:15.682Z,8.07
2022-11-05T16:09:52.403Z,12.02
2022-11-05T16:12:18.679Z,5.50
2022-11-05T16:14:57.217Z,10.40
2022-11-05T16:17:27.988Z,6.72
2022-11-05T16:19:54.802Z,8.32
2022-11-05T16:22:21.731Z,4.47
2022-11-05T16:24:48.323Z,5.05
2022-11-05T16:27:19.612Z,7.22
2022-11-05T16:29:52.383Z,4.68
2022-11-05T16:32:30.710Z,7.30
2022-11-05T16:35:00.446Z,11.10
2022-11-05T16:37:27.698Z,6.85
2022-11-05T16:39:54.114Z,6.80
2022-11-05T16:42:23.560Z,5.07
2022-11-05T16:44:50.960Z,6.63
2022-11-05T16:47:18.184Z,9.55
2022-11-05T16:49:44.524Z,8.70
2022-11-05T16:52:12.448Z,6.13
2022-11-05T16:54:39.280Z,6.15
2022-11-05T16:57:07.844Z,8.00
2022-11-05T16:59:34.423Z,5.85
2022-11-05T17:02:00.849Z,7.18
2022-11-05T17:04:27.366Z,7.22
2022-11-05T17:06:53.715Z,9.68
2022-11-05T17:09:20.188Z,10.70
2022-11-05T17:11:46.567Z,10.57
2022-11-05T17:14:13.674Z,12.40
2022-11-05T17:16:40.867Z,10.52
2022-11-05T17:19:13.724Z,11.30
2022-11-05T17:21:40.102Z,13.90
2022-11-05T17:24:07.052Z,9.43
2022-11-05T17:26:34.231Z,13.75
2022-11-05T17:29:00.870Z,10.63
2022-11-05T17:31:27.446Z,10.85
2022-11-05T17:34:00.103Z,9.50
2022-11-05T17:36:27.435Z,11.45
2022-11-05T17:38:54.579Z,10.27
2022-11-05T17:41:23.035Z,12.35
2022-11-05T17:43:54.655Z,15.40
2022-11-05T17:46:21.217Z,14.15
2022-11-05T17:48:47.760Z,14.88
2022-11-05T17:51:17.087Z,14.25
2022-11-05T17:53:45.588Z,16.73
2022-11-05T17:56:14.033Z,13.15
2022-11-05T17:58:40.813Z,14.32
2022-11-05T18:01:08.949Z,17.63
2022-11-05T18:03:35.455Z,16.95
2022-11-05T18:06:06.132Z,14.82
2022-11-05T18:08:33.146Z,17.50
2022-11-05T18:10:59.535Z,13.43
2022-11-05T18:13:25.894Z,15.32
2022-11-05T18:15:53.837Z,16.52
2022-11-05T18:18:21.416Z,15.40
2022-11-05T18:20:47.948Z,13.85
2022-11-05T18:23:14.920Z,15.32
2022-11-05T18:25:42.321Z,16.25
2022-11-05T18:28:09.362Z,15.27
2022-11-05T18:30:38.650Z,13.07
2022-11-05T18:33:05.232Z,14.32
2022-11-05T18:35:31.613Z,12.23
2022-11-05T18:37:58.033Z,13.00
2022-11-05T18:40:24.440Z,15.52
2022-11-05T18:42:50.928Z,16.52
2022-11-05T18:45:17.347Z,16.10
2022-11-05T18:47:43.748Z,14.90
2022-11-05T18:50:10.381Z,17.60
2022-11-05T18:52:36.875Z,12.02
2022-11-05T18:55:03.593Z,16.67
2022-11-05T18:57:29.932Z,10.57
2022-11-05T18:59:56.265Z,14.38
2022-11-05T19:02:23.016Z,13.10
2022-11-05T19:05:13.841Z,13.25
2022-11-05T19:07:37.694Z,12.40
2022-11-05T19:10:04.432Z,11.98
2022-11-05T19:12:30.798Z,12.95
2022-11-05T19:15:02.054Z,17.98
2022-11-05T19:17:29.279Z,13.00
2022-11-05T19:19:55.643Z,12.93
2022-11-05T19:22:22.158Z,11.38
2022-11-05T19:24:48.525Z,13.88
2022-11-05T19:27:15.020Z,11.75
2022-11-05T19:29:41.472Z,10.80
2022-11-05T19:32:09.139Z,13.70
2022-11-05T19:34:35.569Z,13.73
2022-11-05T19:37:02.016Z,14.82
2022-11-05T19:39:28.540Z,13.95
2022-11-05T19:42:00.333Z,14.93
2022-11-05T19:46:55.856Z,12.45
2022-11-05T19:49:22.469Z,11.07
2022-11-05T19:51:48.840Z,16.98
2022-11-05T19:54:15.236Z,10.85
2022-11-05T19:56:41.610Z,9.63
2022-11-05T19:59:08.048Z,17.45
2022-11-05T20:01:35.012Z,12.20
2022-11-05T20:04:02.420Z,11.40
2022-11-05T20:06:32.832Z,13.27
2022-11-05T20:11:49.305Z,8.93
2022-11-05T20:14:16.085Z,11.38
2022-11-05T20:16:42.907Z,12.15
2022-11-05T20:19:12.815Z,10.98
2022-11-05T20:21:39.692Z,10.55
2022-11-05T20:24:06.798Z,9.90
2022-11-05T20:26:33.927Z,8.68
2022-11-05T20:29:00.648Z,8.65
2022-11-05T20:31:27.127Z,8.70
2022-11-05T20:33:54.416Z,7.93
2022-11-05T20:36:24.415Z,10.13
2022-11-05T20:38:53.084Z,9.32
2022-11-05T20:41:19.837Z,13.73
2022-11-05T20:43:47.923Z,11.10
2022-11-05T20:46:17.091Z,8.43
2022-11-05T20:48:44.479Z,8.68
2022-11-05T20:51:15.008Z,8.75
2022-11-05T20:53:42.029Z,8.38
2022-11-05T20:56:09.272Z,8.55
2022-11-05T20:58:37.487Z,9.55
2022-11-05T21:01:05.761Z,8.10
2022-11-05T21:03:32.571Z,12.52
2022-11-05T21:06:04.064Z,10.07
2022-11-05T21:08:30.563Z,7.93
2022-11-05T21:10:57.034Z,9.32
2022-11-05T21:13:24.256Z,8.43
2022-11-05T21:15:55.627Z,8.48
2022-11-05T21:18:24.454Z,7.88
2022-11-05T21:20:51.296Z,6.28
2022-11-05T21:23:18.157Z,6.53
2022-11-05T21:25:44.822Z,5.75
2022-11-05T21:28:13.097Z,9.88
2022-11-05T21:30:45.368Z,8.23
2022-11-05T21:33:13.628Z,11.45
2022-11-05T21:35:43.789Z,7.53
2022-11-05T21:38:11.807Z,7.97
2022-11-05T21:40:38.675Z,9.13
2022-11-05T21:43:05.540Z,8.73
2022-11-05T21:45:32.452Z,8.63
2022-11-05T21:47:59.092Z,8.43
2022-11-05T21:50:44.228Z,5.95
2022-11-05T21:53:32.376Z,6.28
2022-11-05T21:56:17.827Z,8.10
2022-11-05T21:59:02.710Z,8.38
2022-11-05T22:04:00.266Z,7.22
2022-11-05T22:06:29.112Z,5.53
2022-11-05T22:08:55.474Z,6.78
2022-11-05T22:11:21.852Z,8.50
2022-11-05T22:13:48.220Z,7.97
2022-11-05T22:16:14.835Z,10.90
2022-11-05T22:18:41.184Z,11.30
2022-11-05T22:21:07.880Z,11.02
2022-11-05T22:23:34.264Z,9.93
2022-11-05T22:26:01.618Z,9.20
2022-11-05T22:28:28.195Z,7.80
2022-11-05T22:30:54.600Z,8.02
2022-11-05T22:33:21.009Z,11.20
2022-11-05T22:35:47.427Z,9.18
2022-11-05T22:38:14.221Z,8.82
2022-11-05T22:40:40.884Z,7.22
2022-11-05T22:43:07.277Z,8.00
2022-11-05T22:45:37.044Z,9.82
2022-11-05T22:48:06.777Z,8.68
2022-11-05T22:50:33.583Z,10.05
2022-11-05T22:52:59.952Z,9.60
2022-11-05T22:55:26.322Z,13.00
2022-11-05T22:57:52.861Z,11.05
2022-11-05T23:00:19.334Z,11.85
2022-11-05T23:02:47.019Z,8.05
2022-11-05T23:05:15.729Z,8.57
2022-11-05T23:08:00.427Z,10.68
2022-11-05T23:10:45.197Z,11.48
2022-11-05T23:13:11.551Z,11.48
2022-11-05T23:15:56.335Z,11.18
2022-11-05T23:18:41.143Z,14.63
2022-11-05T23:21:26.017Z,12.00
2022-11-05T23:24:04.349Z,12.40
2022-11-05T23:26:50.463Z,11.68
2022-11-05T23:29:22.465Z,9.85
2022-11-05T23:32:08.395Z,10.27
2022-11-05T23:34:35.299Z,6.38
2022-11-05T23:37:20.212Z,7.95
2022-11-05T23:42:31.470Z,7.47
2022-11-05T23:48:01.704Z,11.75
2022-11-05T23:50:28.188Z,13.85
2022-11-05T23:52:55.504Z,12.27
2022-11-05T23:55:23.210Z,8.10
2022-11-05T23:57:49.709Z,11.40
